createdAt,value
2022-11-29T00:05:47.581Z,100476
2022-11-29T00:19:48.616Z,100456
2022-11-29T00:33:51.236Z,100470
2022-11-29T00:47:51.180Z,100483
2022-11-29T01:01:53.518Z,100483
2022-11-29T01:15:56.133Z,100486
2022-11-29T01:29:58.423Z,100495
2022-11-29T01:43:59.015Z,100508
2022-11-29T01:58:00.865Z,100519
2022-11-29T02:12:02.446Z,100534
2022-11-29T02:26:05.822Z,100534
2022-11-29T02:40:04.792Z,100549
2022-11-29T02:54:05.978Z,100543
2022-11-29T03:08:07.979Z,100575
2022-11-29T03:22:09.466Z,100583
2022-11-29T03:36:12.591Z,100592
2022-11-29T03:50:14.273Z,100603
2022-11-29T04:04:14.863Z,100612
2022-11-29T04:18:16.731Z,100621
2022-11-29T04:32:17.867Z,100628
2022-11-29T04:46:19.414Z,100632
2022-11-29T05:00:22.018Z,100641
2022-11-29T05:14:23.465Z,100666
2022-11-29T05:28:24.554Z,100673
2022-11-29T05:42:26.791Z,100699
2022-11-29T05:56:28.889Z,100707
2022-11-29T06:10:32.502Z,100727
2022-11-29T06:24:36.250Z,100748
2022-11-29T06:38:37.469Z,100756
2022-11-29T06:52:37.750Z,100762
2022-11-29T07:06:39.271Z,100785
2022-11-29T07:20:41.216Z,100793
2022-11-29T07:34:43.539Z,100809
2022-11-29T07:48:45.322Z,100835
2022-11-29T08:02:48.140Z,100834
2022-11-29T08:16:50.249Z,100843
2022-11-29T08:30:55.515Z,100862
2022-11-29T08:44:58.753Z,100883
2022-11-29T08:58:58.965Z,100897
2022-11-29T09:13:02.525Z,100905
2022-11-29T09:27:05.870Z,100907
2022-11-29T09:41:07.404Z,100931
2022-11-29T09:55:11.211Z,100954
2022-11-29T10:09:12.388Z,100952
2022-11-29T10:23:15.504Z,100944
2022-11-29T10:37:18.423Z,100942
2022-11-29T10:51:20.531Z,100949
2022-11-29T11:05:24.162Z,100957
2022-11-29T11:19:27.748Z,100958
2022-11-29T11:33:29.824Z,100964
2022-11-29T11:47:31.415Z,100973
2022-11-29T12:01:32.809Z,100980
2022-11-29T12:15:35.839Z,100991
2022-11-29T12:29:37.608Z,100992
2022-11-29T12:43:41.376Z,101005
2022-11-29T12:57:44.086Z,101012
2022-11-29T13:11:45.436Z,101016
2022-11-29T13:25:45.360Z,101019
2022-11-29T13:39:47.784Z,101007
2022-11-29T13:53:49.028Z,101021
2022-11-29T14:07:48.402Z,101029
2022-11-29T14:21:51.868Z,101010
2022-11-29T14:35:53.963Z,101021
2022-11-29T14:49:54.616Z,101041
2022-11-29T15:03:53.722Z,101058
2022-11-29T15:17:54.404Z,101059
2022-11-29T15:31:56.141Z,101064
2022-11-29T15:45:58.037Z,101079
2022-11-29T15:59:59.565Z,101085
2022-11-29T16:13:59.681Z,101100
2022-11-29T16:28:02.279Z,101109
2022-11-29T16:42:04.545Z,101123
2022-11-29T16:56:04.213Z,101118
2022-11-29T17:10:04.691Z,101110
2022-11-29T17:24:05.573Z,101124
2022-11-29T17:38:07.788Z,101136
2022-11-29T17:52:08.647Z,101149
2022-11-29T18:06:09.469Z,101149
2022-11-29T18:20:08.959Z,101162
2022-11-29T18:34:08.711Z,101157
2022-11-29T18:48:10.565Z,101147
2022-11-29T19:02:09.233Z,101180
2022-11-29T19:16:12.940Z,101192
2022-11-29T19:30:12.180Z,101201
2022-11-29T19:44:13.727Z,101204
2022-11-29T19:58:13.595Z,101205
2022-11-29T20:12:11.200Z,101218
2022-11-29T20:26:13.896Z,101232
2022-11-29T20:40:15.763Z,101244
2022-11-29T20:54:18.048Z,101259
2022-11-29T21:08:15.677Z,101264
2022-11-29T21:22:15.954Z,101271
2022-11-29T21:36:17.977Z,101274
2022-11-29T21:50:18.528Z,101270
2022-11-29T22:04:18.949Z,101273
2022-11-29T22:18:18.182Z,101280
2022-11-29T22:32:18.649Z,101279
2022-11-29T22:46:21.268Z,101271
2022-11-29T23:00:21.875Z,101280
2022-11-29T23:14:23.002Z,101278
2022-11-29T23:28:22.978Z,101302
2022-11-29T23:42:25.019Z,101307
2022-11-29T23:56:26.796Z,101304
